Tyrone, New York
Current Conditions -  °F | °C
As of 9:11 AM on Monday 22 Dec 2014 (Local Time) from KPEO Reporting Station
Broken Clouds Broken Clouds  
Wind Chill: 18°   Ceiling: 1300
Heat Index: 27°   Visibility: 10mi
Dew Point: 21°   Wind: 9mph
Humidity: 78%   Direction: 210°SSW
Pressure: 30.26"   Gusts: NA
Location:  42.41°N, 77.06°W
Report Text: KPEO 221411Z AUTO 21008KT 10SM BKN013 M03/M06 A3026 RMK AO2 T10281061
Loading
Personal Weather Stations






























Interactive Weather Map New forecast layout! Learn more

10-Day Weather Forecast

Advertisements
Track Severe Weather on mobile